Time;durP1;ratioP1;P1;durP2;ratioP2;P2;SDS_P1;SDS_P2;PMS_P1;PMS_P2;Temp;Humidity;BMP_temperature;BMP_pressure;BME280_temperature;BME280_humidity;BME280_pressure;Samples;Min_cycle;Max_cycle;Signal;HPM_P1;HPM_P2
2023/02/07 00:00:19;;;;;;;42.03;19.35;;;1.50;99.90;;;;;;7369432;19;20015;-60
2023/02/07 00:02:47;;;;;;;41.05;20.00;;;1.60;99.90;;;;;;7369936;19;20390;-60
2023/02/07 00:05:14;;;;;;;40.90;18.25;;;1.50;99.90;;;;;;7370887;19;20036;-62
2023/02/07 00:07:41;;;;;;;34.10;18.00;;;1.50;99.90;;;;;;7370650;19;20022;-62
2023/02/07 00:10:09;;;;;;;40.00;19.85;;;1.50;99.90;;;;;;7367877;19;20834;-62
2023/02/07 00:12:35;;;;;;;42.13;20.25;;;1.50;99.90;;;;;;7367357;19;20017;-61
2023/02/07 00:15:01;;;;;;;44.83;21.30;;;1.50;99.90;;;;;;7369357;19;20014;-60
2023/02/07 00:17:28;;;;;;;45.30;23.20;;;1.50;99.90;;;;;;7368395;19;20025;-62
2023/02/07 00:19:55;;;;;;;55.35;25.17;;;1.50;99.90;;;;;;7374250;19;20030;-62
2023/02/07 00:22:21;;;;;;;48.78;23.27;;;1.50;99.90;;;;;;7372042;19;20018;-62
2023/02/07 00:24:50;;;;;;;50.17;24.77;;;1.40;99.90;;;;;;7371336;19;20105;-62
2023/02/07 00:27:16;;;;;;;48.67;24.35;;;1.40;99.90;;;;;;7370108;19;20477;-62
2023/02/07 00:29:43;;;;;;;63.35;24.77;;;1.50;99.90;;;;;;7368342;19;20063;-62
2023/02/07 00:32:09;;;;;;;55.13;25.50;;;1.50;99.90;;;;;;7370087;19;20018;-62
2023/02/07 00:34:35;;;;;;;55.83;25.83;;;1.50;99.90;;;;;;7370669;19;20041;-62
2023/02/07 00:37:04;;;;;;;54.80;26.27;;;1.50;99.90;;;;;;7370506;19;20615;-62
2023/02/07 00:39:30;;;;;;;52.88;26.42;;;1.50;99.90;;;;;;7373149;19;20035;-62
2023/02/07 00:41:59;;;;;;;54.90;24.55;;;1.50;99.90;;;;;;7370948;19;20010;-62
2023/02/07 00:44:26;;;;;;;57.60;27.42;;;1.50;99.90;;;;;;7365209;19;20568;-62
2023/02/07 00:46:52;;;;;;;52.13;26.52;;;1.50;99.90;;;;;;7369374;19;20033;-62
2023/02/07 00:49:18;;;;;;;55.30;26.48;;;1.50;99.90;;;;;;7369616;19;20871;-62
2023/02/07 00:51:45;;;;;;;60.92;26.67;;;1.50;99.90;;;;;;7370148;19;20540;-61
2023/02/07 00:54:11;;;;;;;53.85;25.70;;;1.40;99.90;;;;;;7368781;19;20045;-62
2023/02/07 00:56:38;;;;;;;51.78;26.58;;;1.40;99.90;;;;;;7369994;19;20056;-61
2023/02/07 00:59:04;;;;;;;49.45;26.00;;;1.50;99.90;;;;;;7369016;19;20015;-61
2023/02/07 01:01:30;;;;;;;53.65;27.45;;;1.40;99.90;;;;;;7367743;19;20751;-62
2023/02/07 01:03:57;;;;;;;61.53;28.38;;;1.40;99.90;;;;;;7368024;19;20022;-60
2023/02/07 01:06:23;;;;;;;47.22;26.15;;;1.40;99.90;;;;;;7367107;19;20018;-60
2023/02/07 01:08:54;;;;;;;58.78;25.77;;;1.40;99.90;;;;;;7369514;19;20019;-60
2023/02/07 01:11:21;;;;;;;56.90;27.00;;;1.30;99.90;;;;;;7369688;19;20603;-62
2023/02/07 01:13:47;;;;;;;50.03;25.33;;;1.30;99.90;;;;;;7366397;19;20019;-60
2023/02/07 01:16:25;;;;;;;53.88;28.10;;;1.30;99.90;;;;;;7369551;19;20749;-62
2023/02/07 01:18:52;;;;;;;58.03;26.77;;;1.20;99.90;;;;;;7370785;19;20102;-63
2023/02/07 01:21:22;;;;;;;58.40;27.85;;;1.20;99.90;;;;;;7371252;19;20022;-62
2023/02/07 01:23:49;;;;;;;54.88;26.98;;;1.10;99.90;;;;;;7364617;19;20105;-62
2023/02/07 01:26:16;;;;;;;56.05;26.75;;;1.20;99.90;;;;;;7376406;19;20019;-62
2023/02/07 01:28:42;;;;;;;50.17;26.27;;;1.10;99.90;;;;;;7376691;19;20025;-63
2023/02/07 01:31:12;;;;;;;56.25;28.55;;;1.10;99.90;;;;;;7375855;19;20015;-63
2023/02/07 01:33:39;;;;;;;49.78;27.42;;;1.00;99.90;;;;;;7376094;19;20015;-63
2023/02/07 01:36:11;;;;;;;54.22;25.98;;;1.00;99.90;;;;;;7377454;19;20661;-61
2023/02/07 01:38:37;;;;;;;54.47;26.95;;;0.90;99.90;;;;;;7376791;19;20587;-60
2023/02/07 01:41:06;;;;;;;50.20;26.05;;;0.90;99.90;;;;;;7378338;19;20014;-60
2023/02/07 01:43:32;;;;;;;56.30;26.33;;;0.90;99.90;;;;;;7373829;19;20799;-63
2023/02/07 01:45:59;;;;;;;59.13;27.55;;;0.80;99.90;;;;;;7375354;19;20048;-63
2023/02/07 01:48:36;;;;;;;61.05;29.33;;;0.80;99.90;;;;;;7376088;19;20022;-62
2023/02/07 01:51:05;;;;;;;57.03;27.30;;;0.70;99.90;;;;;;7376599;19;20025;-63
2023/02/07 01:53:34;;;;;;;53.28;27.55;;;0.60;99.90;;;;;;7376432;19;20015;-63
2023/02/07 01:56:05;;;;;;;57.92;27.73;;;0.60;99.90;;;;;;7378505;19;20039;-60
2023/02/07 01:58:36;;;;;;;44.88;25.02;;;0.60;99.90;;;;;;7374094;19;20370;-61
2023/02/07 02:01:08;;;;;;;53.28;27.60;;;0.50;99.90;;;;;;7377122;19;20022;-60
2023/02/07 02:03:40;;;;;;;50.83;26.50;;;0.50;99.90;;;;;;7369406;19;20367;-60
2023/02/07 02:06:07;;;;;;;54.35;25.77;;;0.40;99.90;;;;;;7379211;19;20011;-60
2023/02/07 02:08:35;;;;;;;48.72;25.33;;;0.30;99.90;;;;;;7375305;19;20019;-61
2023/02/07 02:11:35;;;;;;;55.60;26.52;;;0.30;99.90;;;;;;7377720;19;20035;-60
2023/02/07 02:14:02;;;;;;;43.45;24.73;;;0.20;99.90;;;;;;7378570;19;20101;-60
2023/02/07 02:16:40;;;;;;;48.38;23.65;;;0.10;99.90;;;;;;7373754;19;20014;-61
2023/02/07 02:19:44;;;;;;;47.85;26.17;;;0.10;99.90;;;;;;7377441;19;20369;-60
2023/02/07 02:22:49;;;;;;;53.70;25.33;;;0.10;99.90;;;;;;7372997;19;20044;-60
2023/02/07 02:25:46;;;;;;;55.38;27.10;;;0.00;99.90;;;;;;7372294;19;20015;-60
2023/02/07 02:28:28;;;;;;;49.97;26.15;;;0.00;99.90;;;;;;7372998;19;20019;-60
2023/02/07 02:31:22;;;;;;;53.95;27.75;;;0.00;99.90;;;;;;7377021;19;20528;-60
2023/02/07 02:34:17;;;;;;;60.63;25.88;;;-0.10;99.90;;;;;;7375929;19;20652;-60
2023/02/07 02:36:58;;;;;;;50.15;23.90;;;-0.10;99.90;;;;;;7373596;19;20414;-62
2023/02/07 02:39:33;;;;;;;50.08;25.17;;;-0.20;99.90;;;;;;7372358;19;20018;-60
2023/02/07 02:42:18;;;;;;;45.25;24.45;;;-0.30;99.90;;;;;;7372208;19;20686;-61
2023/02/07 02:44:53;;;;;;;51.83;25.58;;;-0.30;99.90;;;;;;7368655;19;20019;-61
2023/02/07 02:47:20;;;;;;;53.85;25.42;;;-0.30;99.90;;;;;;7373279;19;20504;-62
2023/02/07 02:49:48;;;;;;;53.60;25.15;;;-0.30;99.90;;;;;;7369483;19;20035;-62
2023/02/07 02:52:14;;;;;;;41.67;23.40;;;-0.40;99.90;;;;;;7365711;19;20099;-62
2023/02/07 02:54:41;;;;;;;49.58;25.80;;;-0.50;99.90;;;;;;7372211;19;20022;-60
2023/02/07 02:57:51;;;;;;;47.33;23.05;;;-0.40;99.90;;;;;;7371488;19;20022;-61
2023/02/07 03:00:17;;;;;;;45.95;25.30;;;-0.50;99.90;;;;;;7371691;19;20040;-60
2023/02/07 03:03:21;;;;;;;51.42;26.13;;;-0.50;99.90;;;;;;7374353;19;20097;-62
2023/02/07 03:06:15;;;;;;;56.67;26.92;;;-0.50;99.90;;;;;;7371131;19;20022;-62
2023/02/07 03:09:22;;;;;;;53.75;27.15;;;-0.50;99.90;;;;;;7370326;19;20045;-63
2023/02/07 03:12:08;;;;;;;51.50;25.63;;;-0.60;99.90;;;;;;7371282;19;20552;-63
2023/02/07 03:15:10;;;;;;;50.22;24.77;;;-0.60;99.90;;;;;;7370986;19;20078;-62
2023/02/07 03:18:05;;;;;;;43.85;26.02;;;-0.60;99.90;;;;;;7368280;19;20020;-60
2023/02/07 03:20:41;;;;;;;49.58;24.83;;;-0.70;99.90;;;;;;7371144;19;20026;-62
2023/02/07 03:23:09;;;;;;;51.08;26.20;;;-0.60;99.90;;;;;;7372076;19;20045;-62
2023/02/07 03:25:37;;;;;;;47.15;26.00;;;-0.70;99.90;;;;;;7370313;19;20026;-63
2023/02/07 03:28:04;;;;;;;50.63;26.98;;;-0.70;99.90;;;;;;7373291;19;20022;-60
2023/02/07 03:30:33;;;;;;;49.45;26.83;;;-0.80;99.90;;;;;;7373754;19;20014;-60
2023/02/07 03:33:08;;;;;;;47.25;25.55;;;-0.80;99.90;;;;;;7372949;19;20117;-63
2023/02/07 03:35:39;;;;;;;;;;;-0.80;99.90;;;;;;7371452;19;20375;-60
2023/02/07 03:38:06;;;;;;;53.90;23.77;;;-0.80;99.90;;;;;;7371729;19;19930;-60
2023/02/07 03:40:39;;;;;;;53.25;25.75;;;-0.80;99.90;;;;;;7370156;19;20039;-60
2023/02/07 03:43:08;;;;;;;57.33;26.67;;;-0.90;99.90;;;;;;7373985;19;20025;-59
2023/02/07 03:45:34;;;;;;;42.53;25.05;;;-0.90;99.90;;;;;;7372727;19;20018;-60
2023/02/07 03:48:00;;;;;;;46.95;26.40;;;-0.90;99.90;;;;;;7369940;19;20086;-60
2023/02/07 03:50:26;;;;;;;53.92;26.90;;;-1.00;99.90;;;;;;7372053;19;20018;-60
2023/02/07 03:52:53;;;;;;;46.78;24.33;;;-1.00;99.90;;;;;;7371588;19;21675;-60
2023/02/07 03:55:19;;;;;;;45.55;26.10;;;-1.00;99.90;;;;;;7365460;19;20863;-59
2023/02/07 03:57:45;;;;;;;50.67;27.45;;;-1.00;99.90;;;;;;7375432;19;20018;-60
2023/02/07 04:00:12;;;;;;;44.42;24.83;;;-1.00;99.90;;;;;;7371428;19;20015;-62
2023/02/07 04:02:39;;;;;;;52.67;26.35;;;-1.00;99.90;;;;;;7370917;19;20022;-62
2023/02/07 04:05:06;;;;;;;50.20;25.90;;;-1.10;99.90;;;;;;7374178;19;20019;-60
2023/02/07 04:07:33;;;;;;;50.20;25.63;;;-1.10;99.90;;;;;;7373791;19;20477;-62
2023/02/07 04:09:59;;;;;;;45.28;24.70;;;-1.10;99.90;;;;;;7372978;19;20018;-62
2023/02/07 04:12:31;;;;;;;43.05;24.23;;;-1.20;99.90;;;;;;7370943;19;20061;-62
2023/02/07 04:15:03;;;;;;;46.42;24.60;;;-1.10;99.90;;;;;;7372393;19;20443;-62
2023/02/07 04:17:30;;;;;;;40.63;24.35;;;-1.20;99.90;;;;;;7371648;19;20094;-60
2023/02/07 04:19:57;;;;;;;45.45;26.02;;;-1.20;99.90;;;;;;7375032;19;20029;-60
2023/02/07 04:22:23;;;;;;;42.65;24.30;;;-1.20;99.90;;;;;;7371433;19;20719;-62
2023/02/07 04:24:49;;;;;;;43.10;25.23;;;-1.20;99.90;;;;;;7371193;19;20018;-62
2023/02/07 04:27:16;;;;;;;46.83;25.45;;;-1.20;99.90;;;;;;7372362;19;20019;-60
2023/02/07 04:29:42;;;;;;;50.00;24.92;;;-1.20;99.90;;;;;;7372519;19;20019;-60
2023/02/07 04:32:09;;;;;;;46.60;26.15;;;-1.30;99.90;;;;;;7372837;19;20688;-60
2023/02/07 04:34:35;;;;;;;44.83;24.95;;;-1.30;99.90;;;;;;7369064;19;20015;-60
2023/02/07 04:37:01;;;;;;;50.05;26.88;;;-1.30;99.90;;;;;;7370164;19;20021;-60
2023/02/07 04:39:27;;;;;;;43.22;24.70;;;-1.30;99.90;;;;;;7367743;19;20018;-60
2023/02/07 04:41:57;;;;;;;48.30;26.65;;;-1.30;99.90;;;;;;7374393;19;20022;-60
2023/02/07 04:44:23;;;;;;;45.47;25.90;;;-1.30;99.90;;;;;;7372031;19;20018;-60
2023/02/07 04:46:49;;;;;;;48.60;26.20;;;-1.30;99.90;;;;;;7371849;19;20018;-61
2023/02/07 04:49:16;;;;;;;48.05;26.02;;;-1.40;99.90;;;;;;7372637;19;20760;-61
2023/02/07 04:51:42;;;;;;;47.17;26.50;;;-1.40;99.90;;;;;;7367564;19;20054;-62
2023/02/07 04:54:08;;;;;;;46.50;26.13;;;-1.40;99.90;;;;;;7369555;19;20014;-59
2023/02/07 04:56:34;;;;;;;51.08;25.70;;;-1.50;99.90;;;;;;7369125;19;20057;-60
2023/02/07 04:59:00;;;;;;;45.47;27.80;;;-1.40;99.90;;;;;;7379430;19;20082;-61
2023/02/07 05:01:27;;;;;;;45.58;25.80;;;-1.50;99.90;;;;;;7378682;19;20033;-60
2023/02/07 05:03:53;;;;;;;47.70;26.33;;;-1.50;99.90;;;;;;7376487;19;20022;-61
2023/02/07 05:06:19;;;;;;;41.47;25.65;;;-1.50;99.90;;;;;;7375098;19;20366;-61
2023/02/07 05:08:45;;;;;;;40.92;24.33;;;-1.60;99.90;;;;;;7378589;19;20500;-59
2023/02/07 05:11:12;;;;;;;46.58;25.08;;;-1.60;99.90;;;;;;7376990;19;20021;-60
2023/02/07 05:13:38;;;;;;;42.65;23.70;;;-1.60;99.90;;;;;;7379833;19;20037;-59
2023/02/07 05:16:05;;;;;;;48.33;26.02;;;-1.60;99.90;;;;;;7378085;19;20018;-61
2023/02/07 05:18:34;;;;;;;47.55;25.80;;;-1.70;99.90;;;;;;7377822;19;20015;-59
2023/02/07 05:21:00;;;;;;;47.50;25.00;;;-1.60;99.90;;;;;;7379378;19;20024;-60
2023/02/07 05:23:27;;;;;;;42.38;25.67;;;-1.60;99.90;;;;;;7377321;19;20021;-59
2023/02/07 05:25:53;;;;;;;44.28;24.98;;;-1.60;99.90;;;;;;7373453;19;20018;-59
2023/02/07 05:28:20;;;;;;;44.05;24.98;;;-1.70;99.90;;;;;;7379013;19;20041;-59
2023/02/07 05:30:47;;;;;;;40.63;23.95;;;-1.60;99.90;;;;;;7374277;19;20025;-60
2023/02/07 05:33:13;;;;;;;39.65;23.80;;;-1.70;99.90;;;;;;7374462;19;20014;-60
2023/02/07 05:35:42;;;;;;;38.33;22.85;;;-1.70;99.90;;;;;;7371829;19;20054;-60
2023/02/07 05:38:15;;;;;;;37.85;21.98;;;-1.70;99.90;;;;;;7375256;19;20488;-59
2023/02/07 05:40:42;;;;;;;35.80;22.95;;;-1.70;99.90;;;;;;7371771;19;20686;-60
2023/02/07 05:43:09;;;;;;;35.47;21.80;;;-1.70;99.90;;;;;;7373361;19;20101;-61
2023/02/07 05:45:36;;;;;;;36.53;21.83;;;-1.80;99.90;;;;;;7369441;19;20054;-59
2023/02/07 05:48:02;;;;;;;37.58;21.92;;;-1.80;99.90;;;;;;7374855;19;20018;-61
2023/02/07 05:50:29;;;;;;;37.83;23.05;;;-1.80;99.90;;;;;;7375756;19;20781;-60
2023/02/07 05:53:09;;;;;;;36.13;21.65;;;-1.80;99.90;;;;;;7375976;19;20045;-61
2023/02/07 05:55:36;;;;;;;38.10;23.08;;;-1.80;99.90;;;;;;7374110;19;20104;-62
2023/02/07 05:58:02;;;;;;;30.63;21.60;;;-1.80;99.90;;;;;;7374014;19;20015;-61
2023/02/07 06:00:29;;;;;;;34.53;23.35;;;-1.80;99.90;;;;;;7376337;19;20014;-60
2023/02/07 06:02:55;;;;;;;39.83;23.63;;;-1.90;99.90;;;;;;7373514;19;20381;-60
2023/02/07 06:05:23;;;;;;;43.08;24.20;;;-1.80;99.90;;;;;;7373250;19;20022;-60
2023/02/07 06:07:50;;;;;;;36.70;23.25;;;-1.90;99.90;;;;;;7373871;19;20074;-60
2023/02/07 06:10:17;;;;;;;37.95;24.55;;;-1.90;99.90;;;;;;7372348;19;20110;-60
2023/02/07 06:12:43;;;;;;;42.97;27.38;;;-2.00;99.90;;;;;;7373017;19;20022;-61
2023/02/07 06:15:09;;;;;;;43.08;28.27;;;-2.00;99.90;;;;;;7374698;19;20033;-62
2023/02/07 06:17:36;;;;;;;45.42;29.55;;;-2.00;99.90;;;;;;7371521;19;21828;-60
2023/02/07 06:20:03;;;;;;;42.15;28.52;;;-1.90;99.90;;;;;;7371810;19;20037;-61
2023/02/07 06:22:30;;;;;;;48.30;29.08;;;-1.90;99.90;;;;;;7376560;19;20018;-60
2023/02/07 06:24:56;;;;;;;48.97;29.35;;;-1.90;99.90;;;;;;7375482;19;20135;-60
2023/02/07 06:27:22;;;;;;;49.83;31.17;;;-1.90;99.90;;;;;;7376118;19;20015;-60
2023/02/07 06:29:48;;;;;;;43.35;28.38;;;-1.90;99.90;;;;;;7377428;19;20597;-60
2023/02/07 06:32:17;;;;;;;42.58;28.20;;;-1.90;99.90;;;;;;7376421;19;20019;-60
2023/02/07 06:34:44;;;;;;;47.05;29.27;;;-2.00;99.90;;;;;;7375088;19;20018;-61
2023/02/07 06:37:10;;;;;;;50.60;31.00;;;-2.00;99.90;;;;;;7375360;19;20018;-62
2023/02/07 06:39:36;;;;;;;46.53;29.67;;;-2.00;99.90;;;;;;7374854;19;20018;-61
2023/02/07 06:42:03;;;;;;;43.60;29.00;;;-2.00;99.90;;;;;;7372927;19;20026;-62
2023/02/07 06:44:29;;;;;;;44.53;28.45;;;-2.00;99.90;;;;;;7370467;19;20018;-62
2023/02/07 06:46:56;;;;;;;40.35;25.75;;;-2.00;99.90;;;;;;7372046;19;20777;-64
2023/02/07 06:49:22;;;;;;;41.22;26.27;;;-2.10;99.90;;;;;;7372483;19;20022;-62
2023/02/07 06:51:48;;;;;;;43.75;27.60;;;-2.10;99.90;;;;;;7372755;19;20396;-63
2023/02/07 06:54:15;;;;;;;44.50;27.90;;;-2.10;99.90;;;;;;7376257;19;20423;-60
2023/02/07 06:56:41;;;;;;;42.83;27.00;;;-2.10;99.90;;;;;;7375166;19;20022;-60
2023/02/07 06:59:07;;;;;;;43.53;27.25;;;-2.10;99.90;;;;;;7373959;19;20821;-60
2023/02/07 07:01:34;;;;;;;47.35;28.92;;;-2.10;99.90;;;;;;7375397;19;20045;-63
2023/02/07 07:04:00;;;;;;;43.40;28.17;;;-2.10;99.90;;;;;;7375521;19;20011;-61
2023/02/07 07:06:26;;;;;;;47.38;29.13;;;-2.00;99.90;;;;;;7375950;19;20080;-62
2023/02/07 07:08:52;;;;;;;46.60;28.75;;;-2.00;99.90;;;;;;7373855;19;20616;-62
2023/02/07 07:11:19;;;;;;;48.78;28.10;;;-2.00;99.90;;;;;;7373685;19;20022;-62
2023/02/07 07:13:46;;;;;;;44.83;27.20;;;-1.90;99.90;;;;;;7378074;19;20367;-62
2023/02/07 07:16:12;;;;;;;53.03;30.05;;;-1.90;99.90;;;;;;7375977;19;20121;-63
2023/02/07 07:18:40;;;;;;;50.33;28.58;;;-1.80;99.90;;;;;;7375048;19;20022;-61
2023/02/07 07:21:06;;;;;;;46.28;30.13;;;-1.80;99.90;;;;;;7373677;19;20018;-61
2023/02/07 07:23:33;;;;;;;44.70;25.75;;;-1.80;99.90;;;;;;7375931;19;20094;-61
2023/02/07 07:25:59;;;;;;;50.30;27.58;;;-1.80;99.90;;;;;;7373137;19;20023;-61
2023/02/07 07:28:25;;;;;;;50.50;29.00;;;-1.80;99.90;;;;;;7376249;19;20485;-61
2023/02/07 07:30:51;;;;;;;46.38;27.92;;;-1.70;99.90;;;;;;7373633;19;20041;-61
2023/02/07 07:33:18;;;;;;;48.20;27.80;;;-1.60;99.90;;;;;;7375774;19;20014;-61
2023/02/07 07:35:44;;;;;;;54.05;31.05;;;-1.60;99.90;;;;;;7373110;19;20061;-61
2023/02/07 07:38:11;;;;;;;49.65;27.75;;;-1.60;99.90;;;;;;7376919;19;20052;-61
2023/02/07 07:40:37;;;;;;;45.95;26.63;;;-1.60;99.90;;;;;;7375202;19;20025;-61
2023/02/07 07:43:04;;;;;;;43.35;28.02;;;-1.60;99.90;;;;;;7376068;19;20706;-62
2023/02/07 07:45:42;;;;;;;43.70;27.55;;;-1.60;99.90;;;;;;7371309;19;20068;-61
2023/02/07 07:48:08;;;;;;;45.90;28.48;;;-1.60;99.90;;;;;;7375567;19;20017;-61
2023/02/07 07:50:34;;;;;;;40.05;26.17;;;-1.50;99.90;;;;;;7372946;19;20025;-61
2023/02/07 07:53:00;;;;;;;46.42;29.00;;;-1.50;99.90;;;;;;7371651;19;20026;-61
2023/02/07 07:55:27;;;;;;;40.40;28.42;;;-1.50;99.90;;;;;;7375443;19;20026;-61
2023/02/07 07:57:53;;;;;;;47.22;29.00;;;-1.40;99.90;;;;;;7371613;19;20030;-61
2023/02/07 08:00:19;;;;;;;44.67;28.67;;;-1.40;99.90;;;;;;7372640;19;20019;-63
2023/02/07 08:02:45;;;;;;;39.20;25.90;;;-1.30;99.90;;;;;;7369867;19;20018;-61
2023/02/07 08:05:12;;;;;;;38.90;25.83;;;-1.20;99.90;;;;;;7374542;19;20023;-62
2023/02/07 08:07:38;;;;;;;42.92;27.83;;;-1.00;99.90;;;;;;7376006;19;20086;-61
2023/02/07 08:10:04;;;;;;;41.22;26.98;;;-0.80;99.90;;;;;;7377852;19;20675;-61
2023/02/07 08:12:31;;;;;;;38.67;24.05;;;-0.60;99.90;;;;;;7371265;19;20018;-62
2023/02/07 08:14:57;;;;;;;36.55;25.27;;;-0.50;99.90;;;;;;7374930;19;20039;-63
2023/02/07 08:17:24;;;;;;;38.05;24.60;;;-0.40;99.90;;;;;;7372300;19;20068;-61
2023/02/07 08:19:51;;;;;;;40.83;26.08;;;-0.40;99.90;;;;;;7374088;19;20018;-62
2023/02/07 08:22:17;;;;;;;40.05;24.58;;;-0.40;99.90;;;;;;7372715;19;20028;-62
2023/02/07 08:24:44;;;;;;;38.33;24.63;;;-0.40;99.90;;;;;;7373707;19;20026;-62
2023/02/07 08:27:10;;;;;;;35.60;23.90;;;-0.20;99.90;;;;;;7372719;19;20023;-62
2023/02/07 08:29:36;;;;;;;33.83;23.75;;;0.00;99.90;;;;;;7375058;19;20018;-62
2023/02/07 08:32:04;;;;;;;33.65;23.42;;;0.30;99.90;;;;;;7373006;19;20021;-63
2023/02/07 08:34:36;;;;;;;32.22;24.25;;;0.40;99.90;;;;;;7381248;19;20014;-61
2023/02/07 08:37:03;;;;;;;;;;;0.70;99.90;;;;;;7377894;19;20099;-61
2023/02/07 08:39:30;;;;;;;31.30;22.65;;;0.90;99.90;;;;;;7380144;19;20597;-62
2023/02/07 08:41:56;;;;;;;28.02;22.05;;;1.20;99.90;;;;;;7376384;19;20022;-63
2023/02/07 08:44:22;;;;;;;29.25;21.42;;;1.50;99.90;;;;;;7378966;19;20652;-61
2023/02/07 08:46:48;;;;;;;27.73;20.50;;;1.90;99.90;;;;;;7378308;19;20014;-62
2023/02/07 08:49:14;;;;;;;29.60;20.23;;;2.60;99.90;;;;;;7377326;19;20098;-64
2023/02/07 08:51:41;;;;;;;22.70;18.83;;;3.50;99.90;;;;;;7377952;19;20034;-63
2023/02/07 08:54:08;;;;;;;21.83;16.92;;;4.00;99.90;;;;;;7383215;19;20143;-63
2023/02/07 08:56:34;;;;;;;21.48;17.45;;;4.70;99.90;;;;;;7378540;19;20026;-49
2023/02/07 08:59:01;;;;;;;20.55;17.05;;;5.00;99.90;;;;;;7380198;19;20483;-61
2023/02/07 09:01:27;;;;;;;19.23;16.67;;;5.30;99.90;;;;;;7377217;19;20025;-62
2023/02/07 09:03:55;;;;;;;17.60;15.27;;;5.90;99.90;;;;;;7376539;19;20019;-62
2023/02/07 09:06:22;;;;;;;23.38;16.08;;;6.50;99.90;;;;;;7374912;19;20030;-63
2023/02/07 09:08:49;;;;;;;16.98;15.15;;;6.40;99.90;;;;;;7380195;19;20052;-63
2023/02/07 09:11:16;;;;;;;17.27;15.32;;;7.00;99.90;;;;;;7376880;19;20018;-65
2023/02/07 09:13:45;;;;;;;18.00;16.10;;;6.90;99.90;;;;;;7378154;19;20026;-66
2023/02/07 09:16:13;;;;;;;18.33;15.30;;;6.70;99.90;;;;;;7374136;19;20018;-66
2023/02/07 09:18:40;;;;;;;16.45;14.63;;;6.70;99.90;;;;;;7376385;19;20082;-64
2023/02/07 09:21:09;;;;;;;17.73;15.68;;;6.80;99.90;;;;;;7372888;19;20816;-64
2023/02/07 09:23:35;;;;;;;16.55;14.10;;;7.00;99.90;;;;;;7376217;19;20882;-63
2023/02/07 09:26:05;;;;;;;17.00;14.27;;;7.60;99.90;;;;;;7376326;19;20366;-64
2023/02/07 09:28:31;;;;;;;17.48;15.70;;;8.00;99.90;;;;;;7376446;19;20018;-63
2023/02/07 09:30:58;;;;;;;16.65;14.40;;;8.00;99.90;;;;;;7374424;19;20655;-61
2023/02/07 09:33:24;;;;;;;20.17;17.70;;;8.60;99.90;;;;;;7377379;19;20090;-56
2023/02/07 09:35:51;;;;;;;19.52;15.60;;;8.90;99.90;;;;;;7376668;19;20018;-56
2023/02/07 09:38:24;;;;;;;17.15;15.18;;;9.30;99.90;;;;;;7375993;19;20014;-47
2023/02/07 09:40:52;;;;;;;19.02;15.38;;;9.40;99.90;;;;;;7375294;19;20019;-55
2023/02/07 09:43:49;;;;;;;15.00;13.40;;;9.90;99.90;;;;;;7379871;19;20476;-52
2023/02/07 09:46:26;;;;;;;16.02;14.02;;;10.00;99.90;;;;;;7375823;19;20018;-62
2023/02/07 09:49:08;;;;;;;15.02;13.45;;;9.80;99.90;;;;;;7379865;19;20022;-62
2023/02/07 09:51:35;;;;;;;;;;;9.40;99.90;;;;;;7376596;19;20019;-62
2023/02/07 09:54:19;;;;;;;14.73;13.32;;;10.00;99.90;;;;;;7377529;19;19919;-61
2023/02/07 09:56:46;;;;;;;15.95;13.43;;;9.80;99.90;;;;;;7376228;19;20023;-66
2023/02/07 09:59:30;;;;;;;17.65;13.63;;;9.80;99.90;;;;;;7378671;19;20018;-65
2023/02/07 10:02:03;;;;;;;14.02;12.48;;;9.80;99.90;;;;;;7381037;19;20015;-64
2023/02/07 10:04:40;;;;;;;15.38;12.45;;;10.10;99.90;;;;;;7375741;19;20015;-64
2023/02/07 10:07:12;;;;;;;14.05;12.65;;;10.00;99.90;;;;;;7378801;19;20023;-64
2023/02/07 10:09:41;;;;;;;14.25;12.60;;;9.60;99.90;;;;;;7375639;19;20041;-64
2023/02/07 10:12:46;;;;;;;16.02;13.40;;;10.10;99.90;;;;;;7378925;19;20011;-62
2023/02/07 10:15:36;;;;;;;15.80;12.35;;;10.50;99.30;;;;;;7375073;19;20018;-62
2023/02/07 10:18:22;;;;;;;15.30;13.70;;;10.50;94.20;;;;;;7380377;19;20074;-64
2023/02/07 10:21:27;;;;;;;14.38;12.80;;;10.90;95.70;;;;;;7377905;19;20488;-63
2023/02/07 10:24:27;;;;;;;14.88;12.32;;;11.20;99.90;;;;;;7376136;19;20015;-64
2023/02/07 10:27:00;;;;;;;14.75;12.82;;;11.40;95.60;;;;;;7377307;19;20025;-65
2023/02/07 10:30:11;;;;;;;17.10;12.70;;;11.50;96.10;;;;;;7376345;19;20025;-64
2023/02/07 10:32:39;;;;;;;15.00;13.45;;;11.50;96.70;;;;;;7373577;19;20014;-64
2023/02/07 10:35:18;;;;;;;14.32;12.88;;;11.10;99.90;;;;;;7372989;19;20014;-62
2023/02/07 10:37:47;;;;;;;16.90;12.48;;;11.50;86.00;;;;;;7374486;19;20025;-63
2023/02/07 10:40:24;;;;;;;15.07;12.15;;;11.80;81.10;;;;;;7375780;19;20042;-63
2023/02/07 10:43:02;;;;;;;15.95;12.57;;;12.10;99.90;;;;;;7373898;19;20641;-64
2023/02/07 10:45:32;;;;;;;14.27;12.55;;;11.90;72.70;;;;;;7373424;19;20770;-65
2023/02/07 10:47:59;;;;;;;13.63;12.05;;;11.90;85.20;;;;;;7373168;19;20477;-64
2023/02/07 10:50:27;;;;;;;17.17;12.93;;;11.60;99.70;;;;;;7374855;19;20021;-63
2023/02/07 10:52:56;;;;;;;16.60;12.25;;;11.70;98.30;;;;;;7372857;19;20658;-64
2023/02/07 10:55:46;;;;;;;16.15;13.40;;;10.90;84.70;;;;;;7375496;19;20085;-65
2023/02/07 10:58:16;;;;;;;19.05;16.67;;;10.80;82.20;;;;;;7374221;19;20022;-55
2023/02/07 11:00:47;;;;;;;15.50;12.57;;;11.00;90.50;;;;;;7375121;19;20038;-63
2023/02/07 11:03:21;;;;;;;15.63;12.60;;;11.20;92.20;;;;;;7371570;19;20460;-63
2023/02/07 11:06:01;;;;;;;15.45;13.13;;;11.40;90.00;;;;;;7375072;19;20053;-63
2023/02/07 11:08:37;;;;;;;15.57;13.25;;;12.30;83.80;;;;;;7375749;19;20101;-62
2023/02/07 11:11:29;;;;;;;16.05;12.27;;;12.40;79.00;;;;;;7375605;19;20018;-62
2023/02/07 11:14:03;;;;;;;14.05;11.35;;;12.70;67.20;;;;;;7374821;19;20031;-63
2023/02/07 11:16:30;;;;;;;16.88;11.82;;;12.80;74.20;;;;;;7373062;19;21299;-62
2023/02/07 11:19:04;;;;;;;13.77;11.88;;;12.50;76.90;;;;;;7378003;19;20025;-63
2023/02/07 11:21:39;;;;;;;15.35;11.95;;;13.20;70.90;;;;;;7374386;19;20015;-62
2023/02/07 11:24:16;;;;;;;14.02;12.13;;;12.60;68.20;;;;;;7374217;19;20486;-62
2023/02/07 11:27:27;;;;;;;16.23;12.07;;;11.60;69.00;;;;;;7374681;19;20025;-62
2023/02/07 11:30:02;;;;;;;15.20;11.60;;;12.00;72.50;;;;;;7375444;19;20049;-62
2023/02/07 11:32:35;;;;;;;14.48;12.05;;;12.00;79.20;;;;;;7371642;19;20743;-62
2023/02/07 11:35:08;;;;;;;15.02;11.55;;;12.30;69.50;;;;;;7376672;19;20102;-61
2023/02/07 11:37:37;;;;;;;14.07;12.05;;;12.00;71.10;;;;;;7373142;19;20476;-62
2023/02/07 11:40:21;;;;;;;14.43;11.35;;;12.30;69.30;;;;;;7373778;19;20612;-62
2023/02/07 11:43:02;;;;;;;14.55;11.55;;;11.70;67.60;;;;;;7372723;19;20026;-62
2023/02/07 11:45:33;;;;;;;14.35;12.20;;;11.70;71.90;;;;;;7369932;19;20025;-62
2023/02/07 11:48:00;;;;;;;14.07;11.52;;;11.70;71.30;;;;;;7373207;19;20114;-63
2023/02/07 11:50:34;;;;;;;15.88;13.02;;;12.10;69.10;;;;;;7374308;19;20477;-63
2023/02/07 11:53:01;;;;;;;13.35;11.52;;;12.50;68.10;;;;;;7370175;19;20018;-63
2023/02/07 11:55:48;;;;;;;13.23;11.15;;;12.20;67.70;;;;;;7375063;19;20018;-66
2023/02/07 11:58:32;;;;;;;15.68;11.45;;;12.70;65.40;;;;;;7372674;19;20642;-62
2023/02/07 12:01:01;;;;;;;13.18;11.70;;;13.00;64.70;;;;;;7373401;19;20014;-62
2023/02/07 12:03:33;;;;;;;13.65;11.43;;;14.00;66.00;;;;;;7372344;19;20014;-63
2023/02/07 12:06:02;;;;;;;14.65;11.73;;;13.70;64.50;;;;;;7373732;19;20061;-62
2023/02/07 12:08:34;;;;;;;14.25;11.65;;;13.70;61.20;;;;;;7371673;19;20072;-62
2023/02/07 12:11:23;;;;;;;14.52;11.27;;;13.70;60.10;;;;;;7373631;19;20025;-61
2023/02/07 12:14:03;;;;;;;14.30;11.95;;;13.40;63.10;;;;;;7372213;19;20098;-61
2023/02/07 12:16:40;;;;;;;14.93;11.98;;;13.60;62.60;;;;;;7368403;19;20030;-61
2023/02/07 12:19:24;;;;;;;14.68;12.20;;;14.20;61.10;;;;;;7373353;19;20015;-63
2023/02/07 12:22:04;;;;;;;14.05;12.32;;;13.70;60.10;;;;;;7371106;19;20397;-62
2023/02/07 12:24:43;;;;;;;12.32;11.07;;;14.00;59.60;;;;;;7370641;19;20102;-61
2023/02/07 12:27:17;;;;;;;13.13;11.60;;;13.60;60.10;;;;;;7370952;19;20029;-62
2023/02/07 12:30:14;;;;;;;14.07;11.55;;;13.90;59.80;;;;;;7368716;19;20019;-62
2023/02/07 12:32:49;;;;;;;14.10;11.38;;;13.90;59.40;;;;;;7372508;19;20852;-63
2023/02/07 12:35:34;;;;;;;14.27;11.20;;;13.90;60.00;;;;;;7371747;19;20018;-62
2023/02/07 12:38:44;;;;;;;11.90;10.52;;;14.50;56.70;;;;;;7369779;19;20036;-62
2023/02/07 12:41:23;;;;;;;10.38;9.35;;;14.00;56.70;;;;;;7369277;19;20031;-67
2023/02/07 12:44:24;;;;;;;12.68;10.18;;;13.90;56.30;;;;;;7369665;19;20021;-65
2023/02/07 12:47:16;;;;;;;11.07;10.00;;;13.90;57.50;;;;;;7368427;19;20017;-62
2023/02/07 12:50:03;;;;;;;13.38;10.48;;;14.10;57.10;;;;;;7371246;19;20065;-62
2023/02/07 12:52:44;;;;;;;13.90;9.88;;;14.00;57.20;;;;;;7372530;19;20026;-64